createdAt,value
2022-07-29T00:00:05.257Z,1.30
2022-07-29T00:02:33.161Z,1.42
2022-07-29T00:05:00.642Z,1.30
2022-07-29T00:07:27.972Z,1.48
2022-07-29T00:09:55.315Z,1.70
2022-07-29T00:12:26.251Z,1.73
2022-07-29T00:14:55.054Z,1.50
2022-07-29T00:17:23.050Z,1.85
2022-07-29T00:19:50.416Z,1.88
2022-07-29T00:22:17.920Z,1.60
2022-07-29T00:24:45.256Z,2.20
2022-07-29T00:27:12.590Z,1.85
2022-07-29T00:29:39.901Z,2.10
2022-07-29T00:32:07.850Z,1.75
2022-07-29T00:34:53.559Z,2.00
2022-07-29T00:37:20.878Z,2.00
2022-07-29T00:39:48.202Z,1.63
2022-07-29T00:42:15.563Z,1.92
2022-07-29T00:44:43.110Z,1.73
2022-07-29T00:47:11.201Z,2.03
2022-07-29T00:49:39.475Z,1.95
2022-07-29T00:52:07.063Z,2.00
2022-07-29T00:54:35.126Z,1.67
2022-07-29T00:57:06.573Z,1.83
2022-07-29T00:59:34.931Z,1.83
2022-07-29T01:02:04.182Z,1.50
2022-07-29T01:04:32.425Z,1.48
2022-07-29T01:07:00.346Z,1.60
2022-07-29T01:09:40.821Z,1.60
2022-07-29T01:12:16.036Z,1.60
2022-07-29T01:14:43.699Z,1.60
2022-07-29T01:17:18.480Z,1.42
2022-07-29T01:20:07.326Z,1.38
2022-07-29T01:23:05.601Z,1.40
2022-07-29T01:25:56.006Z,1.40
2022-07-29T01:29:01.376Z,1.30
2022-07-29T01:31:59.026Z,1.20
2022-07-29T01:34:47.283Z,1.33
2022-07-29T01:37:37.183Z,1.23
2022-07-29T01:40:05.226Z,1.15
2022-07-29T01:42:37.621Z,1.35
2022-07-29T01:45:30.269Z,1.00
2022-07-29T01:48:02.018Z,0.90
2022-07-29T01:50:38.991Z,1.17
2022-07-29T01:53:07.745Z,1.10
2022-07-29T01:55:38.394Z,1.25
2022-07-29T01:58:06.614Z,1.30
2022-07-29T02:00:34.310Z,1.08
2022-07-29T02:03:10.219Z,0.90
2022-07-29T02:05:37.972Z,1.00
2022-07-29T02:08:05.615Z,1.10
2022-07-29T02:10:33.692Z,1.20
2022-07-29T02:13:01.453Z,1.30
2022-07-29T02:15:31.660Z,1.00
2022-07-29T02:18:16.681Z,1.27
2022-07-29T02:20:46.496Z,1.00
2022-07-29T02:23:14.174Z,1.00
2022-07-29T02:25:42.910Z,1.13
2022-07-29T02:28:10.292Z,1.10
2022-07-29T02:30:40.062Z,1.00
2022-07-29T02:33:07.444Z,1.00
2022-07-29T02:35:35.120Z,1.10
2022-07-29T02:38:21.542Z,1.05
2022-07-29T02:40:48.927Z,1.13
2022-07-29T02:43:16.297Z,1.13
2022-07-29T02:45:43.759Z,1.20
2022-07-29T02:48:14.839Z,1.00
2022-07-29T02:50:49.341Z,1.20
2022-07-29T02:55:46.972Z,1.25
2022-07-29T02:58:29.761Z,1.10
2022-07-29T03:00:58.559Z,1.00
2022-07-29T03:03:28.360Z,1.10
2022-07-29T03:05:59.291Z,1.17
2022-07-29T03:08:26.615Z,1.05
2022-07-29T03:10:54.602Z,0.90
2022-07-29T03:13:21.933Z,1.30
2022-07-29T03:15:49.367Z,1.27
2022-07-29T03:18:17.082Z,1.40
2022-07-29T03:20:44.479Z,1.17
2022-07-29T03:23:11.874Z,1.27
2022-07-29T03:25:39.210Z,1.38
2022-07-29T03:28:06.584Z,1.20
2022-07-29T03:30:34.010Z,1.77
2022-07-29T03:33:01.926Z,1.40
2022-07-29T03:35:30.834Z,1.50
2022-07-29T03:37:58.688Z,1.48
2022-07-29T03:40:29.052Z,1.20
2022-07-29T03:42:56.405Z,1.42
2022-07-29T03:45:23.730Z,1.38
2022-07-29T03:47:57.026Z,1.40
2022-07-29T03:50:27.439Z,1.35
2022-07-29T03:52:54.767Z,1.20
2022-07-29T03:55:22.249Z,1.30
2022-07-29T03:57:50.154Z,1.70
2022-07-29T04:00:17.646Z,1.30
2022-07-29T04:02:49.753Z,1.90
2022-07-29T04:05:17.737Z,1.40
2022-07-29T04:07:46.070Z,1.30
2022-07-29T04:10:13.439Z,1.40
2022-07-29T04:12:40.838Z,1.40
2022-07-29T04:15:08.677Z,1.30
2022-07-29T04:17:35.996Z,1.45
2022-07-29T04:20:03.926Z,1.40
2022-07-29T04:22:31.377Z,1.70
2022-07-29T04:25:03.383Z,1.58
2022-07-29T04:27:31.418Z,1.65
2022-07-29T04:29:58.915Z,1.88
2022-07-29T04:32:26.380Z,1.85
2022-07-29T04:34:53.750Z,1.95
2022-07-29T04:37:21.086Z,1.95
2022-07-29T04:39:48.374Z,1.83
2022-07-29T04:42:15.698Z,1.83
2022-07-29T04:44:44.739Z,2.38
2022-07-29T04:47:13.120Z,2.42
2022-07-29T04:49:40.972Z,2.20
2022-07-29T04:52:08.309Z,2.00
2022-07-29T04:54:35.657Z,2.53
2022-07-29T04:57:03.100Z,2.70
2022-07-29T04:59:30.639Z,2.15
2022-07-29T05:01:58.350Z,2.30
2022-07-29T05:04:25.763Z,1.98
2022-07-29T05:06:53.107Z,3.03
2022-07-29T05:09:20.449Z,1.95
2022-07-29T05:11:47.771Z,2.60
2022-07-29T05:14:15.380Z,2.10
2022-07-29T05:16:44.360Z,2.00
2022-07-29T05:19:14.441Z,2.50
2022-07-29T05:21:42.394Z,2.75
2022-07-29T05:24:09.732Z,2.80
2022-07-29T05:26:37.084Z,2.70
2022-07-29T05:29:04.395Z,2.60
2022-07-29T05:31:31.799Z,4.20
2022-07-29T05:33:59.173Z,3.15
2022-07-29T05:36:26.731Z,3.40
2022-07-29T05:38:54.086Z,3.25
2022-07-29T05:41:22.065Z,2.67
2022-07-29T05:43:49.464Z,2.80
2022-07-29T05:46:17.113Z,3.20
2022-07-29T05:48:44.554Z,3.08
2022-07-29T05:51:11.956Z,2.75
2022-07-29T05:53:39.295Z,2.75
2022-07-29T05:56:08.329Z,2.83
2022-07-29T05:58:35.810Z,3.00
2022-07-29T06:01:03.621Z,2.78
2022-07-29T06:03:31.425Z,2.45
2022-07-29T06:05:58.909Z,1.90
2022-07-29T06:08:26.254Z,1.88
2022-07-29T06:10:53.583Z,2.00
2022-07-29T06:13:20.950Z,1.98
2022-07-29T06:15:49.530Z,2.10
2022-07-29T06:18:16.944Z,2.78
2022-07-29T06:20:44.303Z,2.00
2022-07-29T06:23:11.719Z,2.03
2022-07-29T06:25:41.260Z,2.20
2022-07-29T06:28:08.625Z,1.92
2022-07-29T06:30:36.067Z,2.20
2022-07-29T06:33:04.113Z,2.00
2022-07-29T06:35:42.139Z,2.10
2022-07-29T06:38:30.137Z,1.80
2022-07-29T06:41:01.117Z,2.15
2022-07-29T06:43:32.392Z,2.00
2022-07-29T06:46:02.286Z,1.75
2022-07-29T06:48:30.007Z,2.10
2022-07-29T06:50:57.395Z,1.58
2022-07-29T06:53:24.900Z,1.90
2022-07-29T06:55:52.257Z,1.98
2022-07-29T06:58:21.453Z,1.90
2022-07-29T07:00:58.732Z,1.70
2022-07-29T07:03:26.230Z,1.70
2022-07-29T07:05:54.674Z,2.78
2022-07-29T07:08:22.967Z,1.83
2022-07-29T07:10:50.890Z,1.70
2022-07-29T07:13:18.342Z,1.60
2022-07-29T07:15:46.475Z,1.92
2022-07-29T07:18:13.833Z,1.40
2022-07-29T07:20:41.281Z,1.67
2022-07-29T07:23:08.690Z,1.58
2022-07-29T07:25:36.132Z,1.30
2022-07-29T07:28:04.176Z,1.63
2022-07-29T07:30:31.995Z,1.60
2022-07-29T07:32:59.328Z,1.70
2022-07-29T07:35:28.664Z,1.38
2022-07-29T07:37:56.887Z,1.30
2022-07-29T07:40:24.406Z,1.52
2022-07-29T07:42:51.743Z,1.55
2022-07-29T07:45:19.148Z,1.30
2022-07-29T07:47:46.467Z,1.05
2022-07-29T07:50:18.253Z,1.30
2022-07-29T07:52:51.234Z,1.42
2022-07-29T07:55:18.761Z,1.50
2022-07-29T07:57:46.500Z,7.30
2022-07-29T08:00:14.845Z,1.95
2022-07-29T08:02:43.913Z,1.92
2022-07-29T08:05:12.993Z,1.90
2022-07-29T08:07:40.500Z,1.58
2022-07-29T08:10:08.336Z,5.32
2022-07-29T08:12:35.727Z,4.68
2022-07-29T08:15:03.232Z,1.92
2022-07-29T08:17:30.612Z,1.60
2022-07-29T08:20:03.147Z,1.40
2022-07-29T08:22:30.605Z,1.85
2022-07-29T08:24:57.981Z,1.70
2022-07-29T08:27:43.304Z,1.85
2022-07-29T08:30:11.632Z,8.40
2022-07-29T08:32:55.679Z,1.80
2022-07-29T08:35:23.983Z,1.65
2022-07-29T08:37:52.025Z,1.80
2022-07-29T08:40:30.718Z,1.55
2022-07-29T08:43:07.908Z,1.98
2022-07-29T08:45:48.731Z,1.95
2022-07-29T08:48:19.962Z,2.03
2022-07-29T08:50:48.202Z,2.38
2022-07-29T08:53:17.620Z,2.08
2022-07-29T08:55:46.515Z,1.95
2022-07-29T08:58:15.637Z,1.88
2022-07-29T09:00:45.979Z,1.67
2022-07-29T09:03:18.074Z,1.80
2022-07-29T09:05:48.564Z,3.80
2022-07-29T09:08:17.039Z,2.65
2022-07-29T09:10:46.959Z,2.20
2022-07-29T09:13:14.320Z,1.80
2022-07-29T09:16:09.589Z,2.10
2022-07-29T09:18:41.460Z,1.98
2022-07-29T09:21:49.163Z,2.15
2022-07-29T09:24:16.889Z,2.30
2022-07-29T09:26:45.735Z,2.20
2022-07-29T09:29:34.451Z,2.22
2022-07-29T09:33:02.580Z,3.45
2022-07-29T09:36:04.481Z,5.63
2022-07-29T09:38:33.819Z,2.72
2022-07-29T09:44:54.341Z,2.30
2022-07-29T09:47:25.030Z,2.42
2022-07-29T09:50:00.166Z,3.20
2022-07-29T09:52:31.886Z,2.50
2022-07-29T09:55:07.048Z,2.40
2022-07-29T09:57:34.582Z,2.50
2022-07-29T10:00:10.036Z,2.30
2022-07-29T10:02:42.384Z,2.40
2022-07-29T10:05:22.092Z,2.33
2022-07-29T10:07:55.238Z,2.30
2022-07-29T10:10:29.478Z,2.15
2022-07-29T10:13:06.403Z,2.70
2022-07-29T10:15:50.497Z,2.15
2022-07-29T10:18:20.595Z,2.28
2022-07-29T10:20:48.061Z,2.63
2022-07-29T10:23:15.437Z,2.33
2022-07-29T10:25:46.223Z,2.55
2022-07-29T10:28:16.565Z,2.78
2022-07-29T10:30:45.518Z,2.70
2022-07-29T10:33:45.317Z,2.70
2022-07-29T10:36:25.396Z,2.90
2022-07-29T10:38:56.786Z,2.72
2022-07-29T10:41:43.964Z,3.00
2022-07-29T10:44:23.203Z,2.60
2022-07-29T10:46:51.717Z,2.78
2022-07-29T10:49:31.169Z,2.70
2022-07-29T10:52:09.517Z,2.63
2022-07-29T10:54:43.841Z,2.70
2022-07-29T10:57:54.566Z,2.53
2022-07-29T11:00:28.987Z,2.40
2022-07-29T11:02:59.194Z,2.92
2022-07-29T11:05:31.998Z,2.40
2022-07-29T11:08:20.317Z,2.60
2022-07-29T11:10:49.857Z,2.70
2022-07-29T11:13:52.538Z,2.58
2022-07-29T11:16:23.129Z,2.50
2022-07-29T11:19:13.287Z,2.50
2022-07-29T11:21:55.220Z,2.30
2022-07-29T11:24:35.576Z,2.10
2022-07-29T11:27:28.607Z,2.40
2022-07-29T11:29:58.676Z,2.40
2022-07-29T11:32:37.734Z,2.20
2022-07-29T11:38:31.809Z,2.13
2022-07-29T11:41:18.978Z,1.98
2022-07-29T11:43:54.924Z,2.17
2022-07-29T11:46:51.216Z,2.40
2022-07-29T11:49:31.500Z,2.65
2022-07-29T11:52:10.888Z,2.60
2022-07-29T11:54:58.307Z,2.03
2022-07-29T11:57:36.049Z,2.47
2022-07-29T12:00:12.123Z,1.98
2022-07-29T12:02:48.452Z,2.53
2022-07-29T12:05:23.966Z,2.42
2022-07-29T12:08:20.433Z,2.40
2022-07-29T12:10:49.668Z,2.28
2022-07-29T12:13:18.202Z,2.10
2022-07-29T12:16:00.036Z,2.22
2022-07-29T12:18:28.007Z,1.90
2022-07-29T12:21:04.934Z,2.22
2022-07-29T12:23:34.996Z,2.33
2022-07-29T12:26:07.668Z,2.45
2022-07-29T12:28:41.928Z,2.38
2022-07-29T12:31:15.219Z,2.17
2022-07-29T12:34:02.608Z,2.67
2022-07-29T12:36:29.980Z,2.45
2022-07-29T12:38:57.699Z,2.60
2022-07-29T12:41:25.067Z,2.25
2022-07-29T12:43:55.704Z,2.35
2022-07-29T12:46:23.240Z,2.70
2022-07-29T12:48:58.224Z,2.20
2022-07-29T12:51:32.211Z,2.22
2022-07-29T12:54:08.943Z,2.30
2022-07-29T12:56:44.765Z,2.38
2022-07-29T12:59:20.036Z,2.55
2022-07-29T13:01:52.179Z,1.90
2022-07-29T13:04:33.546Z,2.40
2022-07-29T13:07:04.879Z,2.17
2022-07-29T13:09:44.474Z,1.83
2022-07-29T13:12:12.933Z,2.55
2022-07-29T13:14:44.980Z,2.20
2022-07-29T13:17:19.035Z,2.38
2022-07-29T13:19:48.046Z,2.20
2022-07-29T13:22:17.373Z,2.13
2022-07-29T13:25:04.006Z,2.58
2022-07-29T13:27:37.249Z,2.30
2022-07-29T13:30:06.870Z,2.50
2022-07-29T13:32:35.495Z,2.55
2022-07-29T13:35:04.975Z,2.38
2022-07-29T13:37:35.158Z,2.50
2022-07-29T13:40:04.164Z,3.05
2022-07-29T13:42:32.842Z,2.45
2022-07-29T13:45:00.836Z,2.45
2022-07-29T13:47:32.849Z,2.45
2022-07-29T13:50:06.097Z,2.90
2022-07-29T13:52:34.596Z,2.40
2022-07-29T13:55:02.479Z,2.35
2022-07-29T13:57:29.873Z,2.15
2022-07-29T13:59:57.466Z,2.30
2022-07-29T14:02:26.206Z,2.50
2022-07-29T14:04:55.053Z,2.30
2022-07-29T14:07:23.229Z,2.22
2022-07-29T14:09:51.113Z,2.30
2022-07-29T14:12:18.681Z,2.00
2022-07-29T14:14:47.675Z,2.17
2022-07-29T14:17:15.861Z,1.80
2022-07-29T14:19:43.880Z,1.80
2022-07-29T14:22:11.327Z,1.90
2022-07-29T14:24:39.071Z,1.80
2022-07-29T14:27:07.387Z,2.05
2022-07-29T14:29:37.247Z,1.85
2022-07-29T14:32:07.773Z,2.35
2022-07-29T14:34:36.059Z,2.22
2022-07-29T14:37:06.477Z,1.90
2022-07-29T14:39:39.308Z,2.20
2022-07-29T14:42:11.566Z,2.05
2022-07-29T14:44:42.295Z,2.60
2022-07-29T14:47:10.272Z,2.35
2022-07-29T14:49:37.598Z,2.28
2022-07-29T14:52:05.323Z,1.90
2022-07-29T14:54:32.685Z,2.08
2022-07-29T14:57:00.198Z,2.20
2022-07-29T14:59:27.746Z,2.33
2022-07-29T15:01:55.313Z,2.20
2022-07-29T15:04:22.738Z,2.13
2022-07-29T15:06:50.222Z,2.47
2022-07-29T15:09:49.321Z,2.60
2022-07-29T15:12:17.367Z,2.03
2022-07-29T15:14:44.842Z,2.60
2022-07-29T15:17:12.191Z,2.33
2022-07-29T15:19:39.957Z,1.92
2022-07-29T15:22:12.488Z,2.53
2022-07-29T15:24:39.944Z,2.58
2022-07-29T15:27:07.297Z,2.33
2022-07-29T15:29:34.758Z,2.40
2022-07-29T15:32:02.708Z,2.90
2022-07-29T15:34:30.338Z,3.10
2022-07-29T15:36:57.919Z,2.90
2022-07-29T15:39:25.252Z,2.58
2022-07-29T15:41:52.672Z,2.65
2022-07-29T15:44:20.889Z,2.28
2022-07-29T15:47:06.164Z,2.60
2022-07-29T15:49:48.055Z,2.85
2022-07-29T15:52:25.369Z,2.60
2022-07-29T15:54:56.956Z,2.83
2022-07-29T15:57:24.820Z,3.08
2022-07-29T15:59:52.391Z,2.92
2022-07-29T16:02:19.948Z,3.00
2022-07-29T16:04:47.479Z,2.53
2022-07-29T16:07:15.347Z,2.78
2022-07-29T16:09:43.789Z,2.90
2022-07-29T16:12:15.475Z,2.72
2022-07-29T16:14:44.383Z,3.08
2022-07-29T16:17:14.494Z,2.90
2022-07-29T16:19:43.434Z,3.05
2022-07-29T16:22:11.164Z,3.30
2022-07-29T16:24:39.002Z,3.30
2022-07-29T16:27:06.555Z,2.88
2022-07-29T16:29:34.133Z,2.90
2022-07-29T16:32:01.897Z,3.20
2022-07-29T16:34:29.698Z,2.90
2022-07-29T16:36:57.218Z,2.70
2022-07-29T16:39:24.710Z,3.05
2022-07-29T16:41:52.088Z,3.05
2022-07-29T16:44:19.702Z,3.40
2022-07-29T16:46:52.539Z,3.00
2022-07-29T16:49:23.433Z,2.92
2022-07-29T16:51:50.879Z,3.30
2022-07-29T16:54:18.276Z,3.60
2022-07-29T16:56:45.951Z,3.53
2022-07-29T16:59:13.423Z,3.30
2022-07-29T17:01:40.822Z,3.15
2022-07-29T17:04:08.319Z,2.92
2022-07-29T17:06:38.184Z,3.10
2022-07-29T17:09:06.920Z,3.50
2022-07-29T17:11:51.623Z,3.55
2022-07-29T17:14:25.746Z,3.17
2022-07-29T17:17:00.405Z,3.47
2022-07-29T17:19:30.312Z,3.15
2022-07-29T17:22:05.046Z,2.55
2022-07-29T17:24:36.661Z,2.75
2022-07-29T17:27:05.802Z,2.88
2022-07-29T17:29:34.867Z,3.10
2022-07-29T17:32:02.583Z,2.90
2022-07-29T17:34:30.008Z,2.65
2022-07-29T17:36:58.007Z,2.90
2022-07-29T17:39:27.908Z,2.50
2022-07-29T17:41:55.255Z,2.20
2022-07-29T17:44:23.257Z,2.35
2022-07-29T17:46:51.968Z,2.22
2022-07-29T17:49:19.534Z,2.13
2022-07-29T17:51:47.109Z,2.15
2022-07-29T17:54:14.597Z,2.00
2022-07-29T17:56:42.007Z,2.25
2022-07-29T17:59:21.235Z,1.60
2022-07-29T18:01:48.945Z,1.50
2022-07-29T18:04:26.126Z,1.48
2022-07-29T18:06:53.819Z,1.23
2022-07-29T18:09:21.242Z,1.50
2022-07-29T18:11:48.924Z,1.33
2022-07-29T18:14:17.091Z,1.60
2022-07-29T18:16:45.043Z,1.85
2022-07-29T18:19:12.486Z,1.55
2022-07-29T18:21:51.843Z,1.90
2022-07-29T18:24:27.520Z,2.15
2022-07-29T18:26:55.070Z,2.20
2022-07-29T18:29:22.655Z,1.98
2022-07-29T18:31:50.222Z,1.90
2022-07-29T18:34:17.799Z,2.05
2022-07-29T18:36:45.911Z,1.95
2022-07-29T18:39:15.413Z,2.08
2022-07-29T18:41:51.998Z,2.22
2022-07-29T18:44:22.108Z,2.00
2022-07-29T18:46:51.459Z,1.98
2022-07-29T18:49:19.325Z,2.00
2022-07-29T18:51:47.010Z,1.83
2022-07-29T18:54:14.548Z,1.90
2022-07-29T18:56:41.983Z,1.88
2022-07-29T18:59:09.472Z,2.08
2022-07-29T19:11:01.201Z,2.30
2022-07-29T19:13:46.383Z,1.70
2022-07-29T19:16:35.697Z,1.73
2022-07-29T19:19:13.718Z,2.30
2022-07-29T19:21:44.856Z,1.90
2022-07-29T19:24:15.367Z,2.10
2022-07-29T19:26:49.189Z,2.17
2022-07-29T19:29:16.601Z,2.20
2022-07-29T19:31:44.241Z,2.00
2022-07-29T19:34:11.707Z,2.22
2022-07-29T19:36:39.046Z,2.22
2022-07-29T19:39:06.546Z,2.38
2022-07-29T19:41:33.943Z,2.33
2022-07-29T19:44:01.315Z,2.53
2022-07-29T19:46:29.114Z,2.70
2022-07-29T19:48:56.682Z,2.55
2022-07-29T19:51:24.143Z,2.60
2022-07-29T19:53:51.597Z,2.38
2022-07-29T19:56:18.939Z,2.50
2022-07-29T19:58:46.825Z,3.00
2022-07-29T20:01:16.659Z,2.75
2022-07-29T20:03:44.804Z,2.60
2022-07-29T20:06:12.798Z,2.60
2022-07-29T20:08:40.211Z,2.80
2022-07-29T20:11:07.618Z,2.90
2022-07-29T20:13:35.364Z,2.75
2022-07-29T20:16:05.563Z,2.25
2022-07-29T20:18:33.016Z,2.60
2022-07-29T20:21:01.413Z,2.47
2022-07-29T20:23:28.830Z,2.40
2022-07-29T20:26:01.117Z,2.50
2022-07-29T20:28:28.521Z,2.40
2022-07-29T20:30:55.957Z,2.47
2022-07-29T20:33:23.290Z,2.58
2022-07-29T20:35:50.622Z,2.38
2022-07-29T20:38:18.421Z,2.30
2022-07-29T20:40:45.967Z,2.60
2022-07-29T20:43:13.371Z,2.08
2022-07-29T20:45:40.742Z,2.78
2022-07-29T20:48:08.562Z,2.47
2022-07-29T20:50:36.032Z,2.95
2022-07-29T20:53:03.453Z,2.60
2022-07-29T20:55:32.041Z,3.05
2022-07-29T20:57:59.482Z,2.80
2022-07-29T21:00:26.905Z,2.80
2022-07-29T21:02:54.399Z,2.75
2022-07-29T21:05:21.787Z,3.08
2022-07-29T21:07:49.133Z,2.80
2022-07-29T21:10:18.293Z,3.55
2022-07-29T21:12:48.568Z,2.88
2022-07-29T21:15:16.275Z,3.25
2022-07-29T21:17:47.240Z,3.20
2022-07-29T21:20:18.516Z,3.38
2022-07-29T21:22:46.007Z,3.35
2022-07-29T21:25:13.419Z,2.88
2022-07-29T21:27:59.162Z,3.10
2022-07-29T21:30:26.496Z,3.22
2022-07-29T21:32:53.873Z,3.40
2022-07-29T21:35:45.297Z,3.30
2022-07-29T21:38:08.610Z,3.30
2022-07-29T21:40:36.007Z,3.25
2022-07-29T21:43:03.326Z,3.30
2022-07-29T21:45:30.682Z,3.40
2022-07-29T21:47:58.058Z,3.28
2022-07-29T21:50:25.420Z,3.60
2022-07-29T21:52:52.763Z,3.10
2022-07-29T21:55:20.613Z,3.80
2022-07-29T21:57:49.923Z,3.50
2022-07-29T22:00:17.277Z,3.67
2022-07-29T22:02:45.042Z,3.70
2022-07-29T22:05:12.603Z,3.80
2022-07-29T22:07:55.761Z,3.90
2022-07-29T22:10:28.352Z,4.05
2022-07-29T22:12:56.933Z,4.00
2022-07-29T22:15:24.484Z,3.38
2022-07-29T22:17:52.090Z,4.00
2022-07-29T22:20:19.630Z,3.33
2022-07-29T22:22:47.027Z,3.75
2022-07-29T22:25:14.399Z,3.92
2022-07-29T22:27:41.769Z,3.67
2022-07-29T22:30:09.581Z,3.50
2022-07-29T22:32:37.030Z,3.55
2022-07-29T22:35:04.619Z,3.47
2022-07-29T22:37:31.951Z,3.28
2022-07-29T22:39:59.289Z,2.88
2022-07-29T22:42:26.653Z,2.92
2022-07-29T22:44:54.380Z,2.75
2022-07-29T22:47:46.002Z,2.85
2022-07-29T22:50:09.148Z,2.63
2022-07-29T22:52:36.896Z,3.17
2022-07-29T22:55:05.153Z,3.00
2022-07-29T22:57:32.507Z,3.00
2022-07-29T23:00:02.177Z,3.15
2022-07-29T23:02:29.554Z,3.00
2022-07-29T23:04:56.959Z,3.25
2022-07-29T23:07:24.302Z,3.03
2022-07-29T23:09:51.996Z,3.28
2022-07-29T23:12:19.345Z,3.13
2022-07-29T23:14:46.795Z,3.03
2022-07-29T23:17:14.227Z,2.90
2022-07-29T23:19:41.627Z,3.08
2022-07-29T23:22:08.978Z,3.00
2022-07-29T23:24:36.346Z,2.85
2022-07-29T23:27:03.940Z,2.50
2022-07-29T23:29:36.503Z,2.22
2022-07-29T23:32:04.501Z,2.97
2022-07-29T23:34:31.844Z,2.85
2022-07-29T23:36:59.372Z,3.00
2022-07-29T23:39:26.841Z,2.67
2022-07-29T23:41:54.212Z,2.80
2022-07-29T23:44:21.707Z,2.63
2022-07-29T23:46:49.109Z,2.50
2022-07-29T23:49:16.582Z,2.65
2022-07-29T23:51:43.950Z,2.63
2022-07-29T23:54:11.306Z,2.40
2022-07-29T23:56:38.630Z,2.53
2022-07-29T23:59:06.187Z,2.45
